Terminal Aerodrome Forecast
Issued by NWS

Home | Current Version | Previous Version | Text Only | Print | Product List | Glossary On
Versions: 1 2 3 4 5 6 7 8 9 10 11 12
000
FTUS42 KTAE 292300
TAFECP
TAF
KECP 292334Z 3000/3024 18005KT P6SM SCT030
      TEMPO 3006/3010 5SM -SHRA BR SCT007 BKN015
     FM301000 34010KT P6SM SCT030=

USA.gov is the U.S. government's official web portal to all federal, state and local government web resources and services.